createdAt,value
2023-06-30T00:00:29.546Z,21.85
2023-06-30T00:01:29.579Z,21.81
2023-06-30T00:02:29.593Z,21.77
2023-06-30T00:03:30.290Z,21.75
2023-06-30T00:04:29.555Z,21.73
2023-06-30T00:05:30.957Z,21.70
2023-06-30T00:06:29.471Z,21.67
2023-06-30T00:07:29.481Z,21.66
2023-06-30T00:08:29.466Z,21.63
2023-06-30T00:09:29.420Z,21.58
2023-06-30T00:10:29.456Z,21.56
2023-06-30T00:11:30.474Z,21.53
2023-06-30T00:12:29.934Z,21.53
2023-06-30T00:13:29.448Z,21.49
2023-06-30T00:14:29.976Z,21.49
2023-06-30T00:15:29.414Z,21.48
2023-06-30T00:16:30.046Z,21.45
2023-06-30T00:17:29.392Z,21.40
2023-06-30T00:18:29.592Z,21.36
2023-06-30T00:19:29.342Z,21.28
2023-06-30T00:20:29.440Z,21.19
2023-06-30T00:21:29.367Z,21.12
2023-06-30T00:22:29.309Z,21.06
2023-06-30T00:23:29.329Z,21.01
2023-06-30T00:24:29.288Z,20.93
2023-06-30T00:25:29.282Z,20.90
2023-06-30T00:26:29.270Z,20.85
2023-06-30T00:27:29.245Z,20.78
2023-06-30T00:28:29.243Z,20.71
2023-06-30T00:29:29.977Z,20.64
2023-06-30T00:30:30.346Z,20.54
2023-06-30T00:31:31.047Z,20.50
2023-06-30T00:32:29.210Z,20.40
2023-06-30T00:33:29.208Z,20.34
2023-06-30T00:34:29.173Z,20.30
2023-06-30T00:35:29.200Z,20.22
2023-06-30T00:36:29.163Z,20.19
2023-06-30T00:37:29.165Z,20.13
2023-06-30T00:38:29.257Z,20.12
2023-06-30T00:39:29.127Z,20.13
2023-06-30T00:40:29.245Z,20.13
2023-06-30T00:41:29.106Z,20.08
2023-06-30T00:42:29.116Z,20.10
2023-06-30T00:43:29.074Z,20.10
2023-06-30T00:44:29.086Z,20.07
2023-06-30T00:45:29.064Z,20.04
2023-06-30T00:46:29.087Z,20.00
2023-06-30T00:47:29.602Z,19.97
2023-06-30T00:48:29.065Z,19.94
2023-06-30T00:49:29.009Z,19.94
2023-06-30T00:50:29.997Z,19.89
2023-06-30T00:51:28.988Z,19.89
2023-06-30T00:52:28.984Z,19.87
2023-06-30T00:53:28.993Z,19.86
2023-06-30T00:54:28.963Z,19.85
2023-06-30T00:55:28.939Z,19.83
2023-06-30T00:56:28.931Z,19.83
2023-06-30T00:57:28.908Z,19.83
2023-06-30T00:58:28.971Z,19.82
2023-06-30T00:59:28.892Z,19.80
2023-06-30T01:00:28.886Z,19.78
2023-06-30T01:01:28.944Z,19.76
2023-06-30T01:02:29.039Z,19.76
2023-06-30T01:03:29.532Z,19.72
2023-06-30T01:04:29.082Z,19.70
2023-06-30T01:05:29.945Z,19.70
2023-06-30T01:06:28.863Z,19.70
2023-06-30T01:07:28.830Z,19.67
2023-06-30T01:08:28.800Z,19.65
2023-06-30T01:09:28.824Z,19.58
2023-06-30T01:10:28.789Z,19.60
2023-06-30T01:11:28.820Z,19.55
2023-06-30T01:12:28.873Z,19.52
2023-06-30T01:13:30.342Z,19.49
2023-06-30T01:14:28.758Z,19.47
2023-06-30T01:15:28.710Z,19.45
2023-06-30T01:16:28.793Z,19.42
2023-06-30T01:17:28.751Z,19.40
2023-06-30T01:18:28.705Z,19.38
2023-06-30T01:19:29.509Z,19.32
2023-06-30T01:20:28.684Z,19.30
2023-06-30T01:21:28.670Z,19.30
2023-06-30T01:22:28.744Z,19.27
2023-06-30T01:23:28.661Z,19.25
2023-06-30T01:24:28.648Z,19.24
2023-06-30T01:25:28.633Z,19.23
2023-06-30T01:26:28.654Z,19.20
2023-06-30T01:27:28.648Z,19.15
2023-06-30T01:28:28.581Z,19.13
2023-06-30T01:29:28.589Z,19.13
2023-06-30T01:30:29.551Z,19.09
2023-06-30T01:31:29.063Z,19.06
2023-06-30T01:32:29.114Z,19.07
2023-06-30T01:33:31.008Z,19.05
2023-06-30T01:34:28.534Z,19.05
2023-06-30T01:35:29.149Z,19.02
2023-06-30T01:36:28.524Z,18.99
2023-06-30T01:37:28.661Z,18.99
2023-06-30T01:38:28.495Z,18.97
2023-06-30T01:39:28.487Z,18.99
2023-06-30T01:40:28.616Z,18.96
2023-06-30T01:41:28.458Z,18.94
2023-06-30T01:42:28.487Z,18.93
2023-06-30T01:43:28.969Z,18.91
2023-06-30T01:44:28.426Z,18.90
2023-06-30T01:45:29.424Z,18.90
2023-06-30T01:46:28.513Z,18.91
2023-06-30T01:47:28.455Z,18.91
2023-06-30T01:48:28.591Z,18.89
2023-06-30T01:49:28.394Z,18.90
2023-06-30T01:50:28.355Z,18.90
2023-06-30T01:51:28.356Z,18.93
2023-06-30T01:52:28.352Z,18.93
2023-06-30T01:53:28.343Z,18.93
2023-06-30T01:54:28.362Z,18.96
2023-06-30T01:55:28.309Z,18.93
2023-06-30T01:56:28.289Z,18.93
2023-06-30T01:57:28.318Z,18.91
2023-06-30T01:58:28.272Z,18.91
2023-06-30T01:59:28.281Z,18.91
2023-06-30T02:00:28.277Z,18.90
2023-06-30T02:01:30.536Z,18.91
2023-06-30T02:02:28.308Z,18.89
2023-06-30T02:03:28.382Z,18.90
2023-06-30T02:04:28.220Z,18.90
2023-06-30T02:05:28.232Z,18.89
2023-06-30T02:06:28.191Z,18.86
2023-06-30T02:07:28.251Z,18.84
2023-06-30T02:08:28.232Z,18.82
2023-06-30T02:09:38.794Z,18.79
2023-06-30T02:10:28.348Z,18.83
2023-06-30T02:11:28.158Z,18.84
2023-06-30T02:12:28.117Z,18.84
2023-06-30T02:13:28.522Z,18.83
2023-06-30T02:14:28.063Z,18.84
2023-06-30T02:15:28.278Z,18.79
2023-06-30T02:16:28.191Z,18.83
2023-06-30T02:17:28.173Z,18.79
2023-06-30T02:18:28.506Z,18.79
2023-06-30T02:19:28.052Z,18.78
2023-06-30T02:20:28.530Z,18.79
2023-06-30T02:21:28.044Z,18.76
2023-06-30T02:22:28.009Z,18.76
2023-06-30T02:23:28.025Z,18.78
2023-06-30T02:24:28.029Z,18.78
2023-06-30T02:25:27.988Z,18.78
2023-06-30T02:26:27.967Z,18.78
2023-06-30T02:27:30.373Z,18.75
2023-06-30T02:28:27.947Z,18.75
2023-06-30T02:29:27.933Z,18.72
2023-06-30T02:30:27.899Z,18.75
2023-06-30T02:31:28.697Z,18.75
2023-06-30T02:32:27.884Z,18.74
2023-06-30T02:33:27.864Z,18.74
2023-06-30T02:34:27.849Z,18.75
2023-06-30T02:35:27.926Z,18.75
2023-06-30T02:36:27.812Z,18.71
2023-06-30T02:37:29.530Z,18.72
2023-06-30T02:38:27.791Z,18.71
2023-06-30T02:39:28.541Z,18.72
2023-06-30T02:40:27.766Z,18.72
2023-06-30T02:41:27.766Z,18.74
2023-06-30T02:42:27.749Z,18.78
2023-06-30T02:43:27.746Z,18.79
2023-06-30T02:44:27.744Z,18.76
2023-06-30T02:45:28.405Z,18.74
2023-06-30T02:46:27.762Z,18.72
2023-06-30T02:47:27.744Z,18.68
2023-06-30T02:48:27.705Z,18.66
2023-06-30T02:49:27.745Z,18.62
2023-06-30T02:50:27.663Z,18.64
2023-06-30T02:51:27.682Z,18.60
2023-06-30T02:52:27.637Z,18.59
2023-06-30T02:53:27.662Z,18.57
2023-06-30T02:54:27.624Z,18.59
2023-06-30T02:55:27.850Z,18.57
2023-06-30T02:56:27.590Z,18.54
2023-06-30T02:57:28.196Z,18.53
2023-06-30T02:58:27.806Z,18.49
2023-06-30T02:59:27.565Z,18.49
2023-06-30T03:00:27.735Z,18.47
2023-06-30T03:01:27.687Z,18.47
2023-06-30T03:02:27.863Z,18.42
2023-06-30T03:03:27.580Z,18.42
2023-06-30T03:04:27.513Z,18.41
2023-06-30T03:05:27.553Z,18.41
2023-06-30T03:06:27.503Z,18.38
2023-06-30T03:07:27.526Z,18.36
2023-06-30T03:08:27.465Z,18.38
2023-06-30T03:09:27.458Z,18.38
2023-06-30T03:10:27.475Z,18.36
2023-06-30T03:11:27.488Z,18.38
2023-06-30T03:12:27.424Z,18.38
2023-06-30T03:13:27.988Z,18.35
2023-06-30T03:14:27.407Z,18.36
2023-06-30T03:15:27.635Z,18.42
2023-06-30T03:16:27.428Z,18.41
2023-06-30T03:17:27.442Z,18.41
2023-06-30T03:18:27.353Z,18.46
2023-06-30T03:19:27.431Z,18.41
2023-06-30T03:20:27.336Z,18.39
2023-06-30T03:21:27.375Z,18.39
2023-06-30T03:22:27.894Z,18.38
2023-06-30T03:23:27.312Z,18.36
2023-06-30T03:24:27.290Z,18.35
2023-06-30T03:25:27.304Z,18.34
2023-06-30T03:26:27.797Z,18.32
2023-06-30T03:27:27.264Z,18.28
2023-06-30T03:28:27.296Z,18.26
2023-06-30T03:29:28.042Z,18.28
2023-06-30T03:30:27.803Z,18.26
2023-06-30T03:31:27.429Z,18.25
2023-06-30T03:32:27.359Z,18.23
2023-06-30T03:33:27.295Z,18.25
2023-06-30T03:34:27.188Z,18.23
2023-06-30T03:35:28.040Z,18.25
2023-06-30T03:36:27.156Z,18.25
2023-06-30T03:37:27.164Z,18.26
2023-06-30T03:38:27.135Z,18.31
2023-06-30T03:39:27.570Z,18.34
2023-06-30T03:40:27.207Z,18.36
2023-06-30T03:41:28.184Z,18.38
2023-06-30T03:42:28.089Z,18.38
2023-06-30T03:43:27.105Z,18.39
2023-06-30T03:44:27.068Z,18.44
2023-06-30T03:45:27.118Z,18.44
2023-06-30T03:46:27.079Z,18.46
2023-06-30T03:47:27.117Z,18.49
2023-06-30T03:48:27.561Z,18.50
2023-06-30T03:49:27.066Z,18.51
2023-06-30T03:50:27.066Z,18.51
2023-06-30T03:51:27.537Z,18.56
2023-06-30T03:52:26.988Z,18.56
2023-06-30T03:53:26.984Z,18.59
2023-06-30T03:54:27.596Z,18.60
2023-06-30T03:55:26.992Z,18.60
2023-06-30T03:56:26.950Z,18.64
2023-06-30T03:57:26.959Z,18.69
2023-06-30T03:58:27.045Z,18.71
2023-06-30T03:59:26.922Z,18.71
2023-06-30T04:00:27.099Z,18.68
2023-06-30T04:01:26.905Z,18.71
2023-06-30T04:02:27.058Z,18.69
2023-06-30T04:03:28.153Z,18.71
2023-06-30T04:04:26.999Z,18.71
2023-06-30T04:05:26.904Z,18.76
2023-06-30T04:06:26.841Z,18.76
2023-06-30T04:07:26.970Z,18.82
2023-06-30T04:08:26.991Z,18.84
2023-06-30T04:09:26.832Z,18.89
2023-06-30T04:10:27.818Z,18.93
2023-06-30T04:11:26.791Z,18.96
2023-06-30T04:12:26.785Z,18.97
2023-06-30T04:13:27.365Z,19.02
2023-06-30T04:14:26.744Z,19.05
2023-06-30T04:15:26.746Z,19.05
2023-06-30T04:16:27.310Z,19.09
2023-06-30T04:17:27.519Z,19.12
2023-06-30T04:18:27.138Z,19.15
2023-06-30T04:19:28.050Z,19.20
2023-06-30T04:20:26.690Z,19.23
2023-06-30T04:21:26.699Z,19.25
2023-06-30T04:22:26.699Z,19.30
2023-06-30T04:23:26.714Z,19.32
2023-06-30T04:24:26.722Z,19.32
2023-06-30T04:25:26.657Z,19.40
2023-06-30T04:26:27.572Z,19.43
2023-06-30T04:27:27.167Z,19.49
2023-06-30T04:28:26.639Z,19.50
2023-06-30T04:29:26.610Z,19.55
2023-06-30T04:30:26.589Z,19.55
2023-06-30T04:31:27.146Z,19.55
2023-06-30T04:32:26.580Z,19.57
2023-06-30T04:33:26.621Z,19.60
2023-06-30T04:34:26.539Z,19.62
2023-06-30T04:35:26.880Z,19.70
2023-06-30T04:36:26.663Z,19.75
2023-06-30T04:37:26.560Z,19.79
2023-06-30T04:38:26.523Z,19.83
2023-06-30T04:39:26.505Z,19.87
2023-06-30T04:40:26.487Z,19.89
2023-06-30T04:41:27.120Z,19.90
2023-06-30T04:42:26.498Z,19.90
2023-06-30T04:43:26.454Z,19.95
2023-06-30T04:44:26.454Z,19.98
2023-06-30T04:45:26.461Z,20.00
2023-06-30T04:46:26.792Z,20.05
2023-06-30T04:47:26.481Z,20.10
2023-06-30T04:48:26.401Z,20.12
2023-06-30T04:49:26.397Z,20.15
2023-06-30T04:50:26.456Z,20.13
2023-06-30T04:51:26.375Z,20.17
2023-06-30T04:52:26.375Z,20.20
2023-06-30T04:53:26.367Z,20.22
2023-06-30T04:54:26.332Z,20.25
2023-06-30T04:55:26.342Z,20.30
2023-06-30T04:56:27.128Z,20.33
2023-06-30T04:57:26.350Z,20.33
2023-06-30T04:58:27.032Z,20.33
2023-06-30T04:59:26.308Z,20.35
2023-06-30T05:00:26.275Z,20.33
2023-06-30T05:01:26.319Z,20.34
2023-06-30T05:02:26.323Z,20.38
2023-06-30T05:03:26.280Z,20.38
2023-06-30T05:04:26.214Z,20.38
2023-06-30T05:05:26.425Z,20.35
2023-06-30T05:06:26.254Z,20.33
2023-06-30T05:07:26.251Z,20.37
2023-06-30T05:08:27.074Z,20.41
2023-06-30T05:09:26.183Z,20.53
2023-06-30T05:10:26.175Z,20.56
2023-06-30T05:11:26.202Z,20.63
2023-06-30T05:12:26.140Z,20.75
2023-06-30T05:13:26.129Z,20.82
2023-06-30T05:14:26.128Z,20.91
2023-06-30T05:15:26.109Z,20.93
2023-06-30T05:16:26.218Z,20.97
2023-06-30T05:17:26.295Z,20.96
2023-06-30T05:18:26.094Z,20.96
2023-06-30T05:19:26.076Z,20.94
2023-06-30T05:20:26.143Z,20.94
2023-06-30T05:21:26.111Z,20.96
2023-06-30T05:22:26.057Z,20.96
2023-06-30T05:23:26.049Z,20.97
2023-06-30T05:24:26.063Z,21.08
2023-06-30T05:25:26.031Z,21.16
2023-06-30T05:26:25.984Z,21.28
2023-06-30T05:27:25.991Z,21.40
2023-06-30T05:28:25.978Z,21.52
2023-06-30T05:29:27.627Z,21.63
2023-06-30T05:30:25.955Z,21.70
2023-06-30T05:31:25.989Z,21.85
2023-06-30T05:32:26.029Z,21.94
2023-06-30T05:33:25.933Z,21.82
2023-06-30T05:34:25.936Z,21.85
2023-06-30T05:35:26.026Z,21.96
2023-06-30T05:36:25.929Z,21.98
2023-06-30T05:37:25.929Z,22.06
2023-06-30T05:38:25.891Z,22.24
2023-06-30T05:39:25.879Z,22.36
2023-06-30T05:40:26.840Z,22.45
2023-06-30T05:41:25.909Z,22.49
2023-06-30T05:42:25.888Z,22.56
2023-06-30T05:43:25.810Z,22.63
2023-06-30T05:44:25.829Z,22.64
2023-06-30T05:45:25.795Z,22.63
2023-06-30T05:46:25.926Z,22.54
2023-06-30T05:47:25.834Z,22.57
2023-06-30T05:48:25.758Z,22.67
2023-06-30T05:49:25.761Z,22.69
2023-06-30T05:50:25.721Z,22.74
2023-06-30T05:51:25.781Z,22.75
2023-06-30T05:52:25.706Z,22.69
2023-06-30T05:53:25.719Z,22.63
2023-06-30T05:54:25.713Z,22.67
2023-06-30T05:55:27.562Z,22.70
2023-06-30T05:56:25.666Z,22.74
2023-06-30T05:57:25.657Z,22.75
2023-06-30T05:58:25.690Z,22.78
2023-06-30T05:59:25.633Z,22.86
2023-06-30T06:00:25.644Z,22.94
2023-06-30T06:01:25.638Z,22.94
2023-06-30T06:02:25.674Z,22.97
2023-06-30T06:03:25.685Z,23.04
2023-06-30T06:04:25.767Z,23.14
2023-06-30T06:05:25.814Z,23.11
2023-06-30T06:06:25.579Z,23.12
2023-06-30T06:07:25.620Z,23.11
2023-06-30T06:08:26.168Z,23.01
2023-06-30T06:09:25.556Z,23.04
2023-06-30T06:10:25.531Z,23.07
2023-06-30T06:11:25.549Z,23.04
2023-06-30T06:12:26.098Z,22.97
2023-06-30T06:13:25.577Z,22.93
2023-06-30T06:14:25.481Z,22.81
2023-06-30T06:15:25.488Z,22.94
2023-06-30T06:16:25.485Z,23.09
2023-06-30T06:17:25.458Z,23.09
2023-06-30T06:18:25.510Z,23.25
2023-06-30T06:19:25.469Z,23.38
2023-06-30T06:20:25.437Z,23.44
2023-06-30T06:21:25.419Z,23.38
2023-06-30T06:22:25.482Z,23.34
2023-06-30T06:23:26.149Z,23.15
2023-06-30T06:24:25.445Z,22.97
2023-06-30T06:25:25.369Z,23.07
2023-06-30T06:26:25.381Z,23.06
2023-06-30T06:27:25.381Z,23.14
2023-06-30T06:28:25.342Z,23.09
2023-06-30T06:29:25.320Z,23.09
2023-06-30T06:30:25.306Z,23.11
2023-06-30T06:31:25.409Z,22.96
2023-06-30T06:32:25.384Z,23.03
2023-06-30T06:33:25.288Z,23.09
2023-06-30T06:34:25.269Z,23.09
2023-06-30T06:35:25.312Z,23.15
2023-06-30T06:36:25.297Z,23.22
2023-06-30T06:37:25.256Z,23.32
2023-06-30T06:38:25.252Z,23.38
2023-06-30T06:39:25.262Z,23.42
2023-06-30T06:40:25.223Z,23.47
2023-06-30T06:41:25.200Z,23.52
2023-06-30T06:42:25.216Z,23.54
2023-06-30T06:43:25.234Z,23.53
2023-06-30T06:44:25.180Z,23.47
2023-06-30T06:45:25.149Z,23.37
2023-06-30T06:46:25.200Z,23.37
2023-06-30T06:47:25.138Z,23.25
2023-06-30T06:48:25.218Z,23.12
2023-06-30T06:49:25.111Z,23.11
2023-06-30T06:50:25.098Z,22.88
2023-06-30T06:51:25.115Z,22.89
2023-06-30T06:52:25.092Z,22.88
2023-06-30T06:53:25.063Z,22.84
2023-06-30T06:54:25.105Z,22.81
2023-06-30T06:55:25.043Z,22.84
2023-06-30T06:56:25.058Z,22.86
2023-06-30T06:57:25.014Z,22.88
2023-06-30T06:58:25.034Z,22.86
2023-06-30T06:59:24.995Z,22.86
2023-06-30T07:00:24.997Z,22.85
2023-06-30T07:01:25.984Z,22.86
2023-06-30T07:02:25.067Z,22.88
2023-06-30T07:03:24.990Z,22.88
2023-06-30T07:04:24.958Z,22.78
2023-06-30T07:05:24.913Z,22.72
2023-06-30T07:06:24.929Z,22.69
2023-06-30T07:07:24.939Z,22.70
2023-06-30T07:08:24.925Z,22.63
2023-06-30T07:09:24.966Z,22.56
2023-06-30T07:10:24.959Z,22.46
2023-06-30T07:11:24.959Z,22.35
2023-06-30T07:12:24.941Z,22.30
2023-06-30T07:13:24.877Z,22.12
2023-06-30T07:14:24.856Z,22.08
2023-06-30T07:15:24.826Z,22.11
2023-06-30T07:16:24.864Z,22.11
2023-06-30T07:17:24.808Z,22.09
2023-06-30T07:18:24.983Z,22.09
2023-06-30T07:19:24.795Z,22.12
2023-06-30T07:20:24.807Z,22.09
2023-06-30T07:21:24.756Z,22.09
2023-06-30T07:22:24.747Z,22.09
2023-06-30T07:23:26.910Z,22.05
2023-06-30T07:24:24.982Z,21.98
2023-06-30T07:25:24.751Z,21.90
2023-06-30T07:26:24.697Z,21.83
2023-06-30T07:27:24.685Z,21.86
2023-06-30T07:28:24.765Z,21.94
2023-06-30T07:29:24.656Z,21.99
2023-06-30T07:30:24.756Z,21.96
2023-06-30T07:31:24.739Z,21.90
2023-06-30T07:32:25.573Z,21.93
2023-06-30T07:33:24.621Z,22.02
2023-06-30T07:34:24.619Z,22.01
2023-06-30T07:35:24.648Z,22.06
2023-06-30T07:36:24.593Z,22.17
2023-06-30T07:37:24.588Z,22.26
2023-06-30T07:38:24.585Z,22.36
2023-06-30T07:39:24.574Z,22.44
2023-06-30T07:40:25.012Z,22.61
2023-06-30T07:41:24.600Z,22.60
2023-06-30T07:42:24.545Z,22.67
2023-06-30T07:43:24.529Z,22.76
2023-06-30T07:44:24.510Z,22.89
2023-06-30T07:45:24.538Z,22.99
2023-06-30T07:46:25.269Z,23.06
2023-06-30T07:47:24.558Z,23.07
2023-06-30T07:48:24.653Z,23.06
2023-06-30T07:49:24.442Z,23.00
2023-06-30T07:50:24.467Z,22.93
2023-06-30T07:51:24.559Z,22.94
2023-06-30T07:52:25.271Z,22.96
2023-06-30T07:53:24.492Z,22.94
2023-06-30T07:54:24.389Z,22.93
2023-06-30T07:55:24.487Z,22.78
2023-06-30T07:56:24.376Z,22.67
2023-06-30T07:57:24.412Z,22.66
2023-06-30T07:58:24.346Z,22.67
2023-06-30T07:59:24.365Z,22.64
2023-06-30T08:00:24.370Z,22.63
2023-06-30T08:01:24.308Z,22.61
2023-06-30T08:02:24.354Z,22.56
2023-06-30T08:03:24.417Z,22.54
2023-06-30T08:04:24.554Z,22.41
2023-06-30T08:05:24.473Z,22.41
2023-06-30T08:06:24.256Z,22.42
2023-06-30T08:07:48.192Z,22.49
2023-06-30T08:08:24.285Z,22.57
2023-06-30T08:09:24.285Z,22.69
2023-06-30T08:10:24.218Z,22.86
2023-06-30T08:11:24.251Z,22.97
2023-06-30T08:12:24.205Z,23.11
2023-06-30T08:13:24.972Z,23.31
2023-06-30T08:14:24.259Z,23.54
2023-06-30T08:15:24.298Z,23.75
2023-06-30T08:16:24.153Z,23.87
2023-06-30T08:17:31.431Z,23.99
2023-06-30T08:18:31.961Z,24.18
2023-06-30T08:19:49.089Z,24.37
2023-06-30T08:20:24.464Z,24.42
2023-06-30T08:21:24.162Z,24.45
2023-06-30T08:22:24.114Z,24.60
2023-06-30T08:23:24.080Z,24.82
2023-06-30T08:24:24.098Z,25.14
2023-06-30T08:25:24.162Z,25.16
2023-06-30T08:26:24.097Z,24.71
2023-06-30T08:27:24.057Z,24.42
2023-06-30T08:28:24.022Z,24.36
2023-06-30T08:29:24.017Z,24.45
2023-06-30T08:30:25.360Z,24.67
2023-06-30T08:31:24.069Z,24.86
2023-06-30T08:32:24.061Z,24.83
2023-06-30T08:33:38.855Z,24.46
2023-06-30T08:34:24.000Z,24.18
2023-06-30T08:35:23.959Z,24.18
2023-06-30T08:36:24.000Z,24.33
2023-06-30T08:37:23.930Z,24.66
2023-06-30T08:38:23.917Z,25.27
2023-06-30T08:39:23.959Z,25.51
2023-06-30T08:40:23.927Z,25.35
2023-06-30T08:41:23.925Z,25.38
2023-06-30T08:42:23.885Z,25.08
2023-06-30T08:43:23.873Z,25.09
2023-06-30T08:44:23.888Z,25.11
2023-06-30T08:45:23.864Z,25.16
2023-06-30T08:46:23.945Z,25.20
2023-06-30T08:47:23.860Z,25.12
2023-06-30T08:48:23.827Z,25.27
2023-06-30T08:49:23.793Z,25.39
2023-06-30T08:50:23.801Z,25.53
2023-06-30T08:51:23.795Z,25.42
2023-06-30T08:52:23.771Z,25.24
2023-06-30T08:53:23.774Z,25.07
2023-06-30T08:54:23.746Z,24.98
2023-06-30T08:55:23.773Z,24.94
2023-06-30T08:56:23.744Z,24.80
2023-06-30T08:57:23.734Z,24.61
2023-06-30T08:58:26.486Z,24.60
2023-06-30T08:59:23.694Z,24.60
2023-06-30T09:00:23.722Z,24.49
2023-06-30T09:01:23.714Z,24.55
2023-06-30T09:02:23.817Z,24.53
2023-06-30T09:03:23.782Z,24.53
2023-06-30T09:04:23.642Z,24.51
2023-06-30T09:05:23.833Z,24.33
2023-06-30T09:06:23.631Z,24.18
2023-06-30T09:07:23.683Z,23.99
2023-06-30T09:08:23.620Z,24.00
2023-06-30T09:09:23.627Z,23.93
2023-06-30T09:10:23.601Z,23.86
2023-06-30T09:11:23.562Z,23.82
2023-06-30T09:12:23.568Z,23.84
2023-06-30T09:13:23.568Z,23.82
2023-06-30T09:14:23.550Z,23.90
2023-06-30T09:15:23.572Z,23.94
2023-06-30T09:16:23.538Z,23.87
2023-06-30T09:17:23.525Z,23.79
2023-06-30T09:18:23.529Z,23.71
2023-06-30T09:19:23.504Z,23.62
2023-06-30T09:20:23.495Z,23.42
2023-06-30T09:21:27.413Z,23.34
2023-06-30T09:22:53.621Z,23.18
2023-06-30T09:23:23.680Z,23.12
2023-06-30T09:24:23.518Z,22.93
2023-06-30T09:25:23.499Z,22.86
2023-06-30T09:26:23.483Z,22.67
2023-06-30T09:27:23.407Z,22.49
2023-06-30T09:28:23.415Z,22.44
2023-06-30T09:29:23.385Z,22.35
2023-06-30T09:30:23.376Z,22.33
2023-06-30T09:31:23.409Z,22.31
2023-06-30T09:32:23.484Z,22.21
2023-06-30T09:33:23.354Z,22.12
2023-06-30T09:34:23.443Z,22.14
2023-06-30T09:35:23.328Z,22.02
2023-06-30T09:36:23.341Z,21.90
2023-06-30T09:37:23.800Z,21.63
2023-06-30T09:38:23.303Z,21.42
2023-06-30T09:39:23.267Z,21.18
2023-06-30T09:40:23.266Z,21.09
2023-06-30T09:41:23.269Z,20.87
2023-06-30T09:42:23.372Z,20.81
2023-06-30T09:43:23.344Z,20.78
2023-06-30T09:44:23.267Z,20.78
2023-06-30T09:45:23.238Z,20.79
2023-06-30T09:46:24.203Z,20.81
2023-06-30T09:47:23.231Z,20.73
2023-06-30T09:48:23.198Z,20.72
2023-06-30T09:49:23.230Z,20.82
2023-06-30T09:50:23.161Z,20.85
2023-06-30T09:51:23.151Z,20.93
2023-06-30T09:52:23.160Z,21.18
2023-06-30T09:53:23.120Z,21.26
2023-06-30T09:54:39.266Z,21.38
2023-06-30T09:55:23.149Z,21.66
2023-06-30T09:56:23.190Z,21.85
2023-06-30T09:57:23.159Z,22.19
2023-06-30T09:58:23.075Z,22.44
2023-06-30T09:59:23.082Z,22.63
2023-06-30T10:00:35.736Z,22.75
2023-06-30T10:01:23.064Z,22.96
2023-06-30T10:02:23.068Z,23.04
2023-06-30T10:03:23.209Z,22.97
2023-06-30T10:04:22.994Z,22.97
2023-06-30T10:05:23.073Z,22.97
2023-06-30T10:06:22.976Z,22.76
2023-06-30T10:07:23.012Z,22.59
2023-06-30T10:08:23.026Z,22.49
2023-06-30T10:09:22.966Z,22.52
2023-06-30T10:10:22.966Z,22.56
2023-06-30T10:11:22.969Z,22.46
2023-06-30T10:12:22.911Z,22.46
2023-06-30T10:13:22.950Z,22.46
2023-06-30T10:14:22.996Z,22.39
2023-06-30T10:15:22.893Z,22.30
2023-06-30T10:16:22.901Z,22.08
2023-06-30T10:17:23.263Z,22.02
2023-06-30T10:18:22.886Z,21.91
2023-06-30T10:19:22.847Z,21.73
2023-06-30T10:20:33.812Z,21.56
2023-06-30T10:21:22.883Z,21.49
2023-06-30T10:22:22.867Z,21.37
2023-06-30T10:23:22.835Z,21.16
2023-06-30T10:24:22.797Z,21.01
2023-06-30T10:25:22.922Z,21.00
2023-06-30T10:26:22.789Z,20.96
2023-06-30T10:27:22.815Z,20.82
2023-06-30T10:28:22.756Z,20.73
2023-06-30T10:29:22.739Z,20.63
2023-06-30T10:30:22.740Z,20.54
2023-06-30T10:31:22.737Z,20.48
2023-06-30T10:32:22.820Z,20.40
2023-06-30T10:33:22.868Z,20.33
2023-06-30T10:34:22.728Z,20.26
2023-06-30T10:35:22.727Z,20.16
2023-06-30T10:36:22.669Z,20.10
2023-06-30T10:37:22.677Z,20.04
2023-06-30T10:38:22.670Z,20.01
2023-06-30T10:39:22.693Z,20.02
2023-06-30T10:40:22.617Z,20.04
2023-06-30T10:41:22.683Z,19.98
2023-06-30T10:42:22.613Z,20.00
2023-06-30T10:43:22.717Z,19.98
2023-06-30T10:44:22.585Z,19.98
2023-06-30T10:45:22.582Z,19.97
2023-06-30T10:46:22.614Z,19.92
2023-06-30T10:47:22.592Z,19.87
2023-06-30T10:48:22.561Z,19.75
2023-06-30T10:49:22.536Z,19.64
2023-06-30T10:50:22.524Z,19.62
2023-06-30T10:51:22.549Z,19.61
2023-06-30T10:52:22.552Z,19.47
2023-06-30T10:53:22.550Z,19.47
2023-06-30T10:54:22.486Z,19.50
2023-06-30T10:55:22.491Z,19.57
2023-06-30T10:56:22.451Z,19.61
2023-06-30T10:57:22.480Z,19.67
2023-06-30T10:58:22.430Z,19.67
2023-06-30T10:59:22.464Z,19.75
2023-06-30T11:00:22.418Z,19.82
2023-06-30T11:01:22.408Z,19.95
2023-06-30T11:02:22.424Z,20.05
2023-06-30T11:03:22.524Z,20.10
2023-06-30T11:04:22.550Z,20.07
2023-06-30T11:05:22.397Z,19.98
2023-06-30T11:06:22.363Z,19.98
2023-06-30T11:07:22.418Z,19.95
2023-06-30T11:08:22.363Z,20.00
2023-06-30T11:09:22.353Z,19.97
2023-06-30T11:10:22.295Z,19.97
2023-06-30T11:11:22.321Z,19.92
2023-06-30T11:12:22.315Z,19.72
2023-06-30T11:13:22.327Z,19.64
2023-06-30T11:14:22.269Z,19.75
2023-06-30T11:15:22.270Z,19.89
2023-06-30T11:16:22.226Z,19.98
2023-06-30T11:17:22.289Z,20.04
2023-06-30T11:18:22.572Z,20.05
2023-06-30T11:19:22.222Z,20.16
2023-06-30T11:20:22.194Z,20.25
2023-06-30T11:21:22.191Z,20.23
2023-06-30T11:22:22.210Z,20.37
2023-06-30T11:23:22.194Z,20.40
2023-06-30T11:24:22.194Z,20.41
2023-06-30T11:25:22.141Z,20.35
2023-06-30T11:26:22.122Z,20.38
2023-06-30T11:27:22.123Z,20.37
2023-06-30T11:28:22.135Z,20.42
2023-06-30T11:29:22.142Z,20.35
2023-06-30T11:30:22.100Z,20.35
2023-06-30T11:31:22.137Z,20.33
2023-06-30T11:32:22.120Z,20.40
2023-06-30T11:33:22.074Z,20.40
2023-06-30T11:34:22.037Z,20.48
2023-06-30T11:35:22.061Z,20.56
2023-06-30T11:36:22.035Z,20.60
2023-06-30T11:37:22.028Z,20.71
2023-06-30T11:38:22.022Z,20.75
2023-06-30T11:39:22.000Z,20.64
2023-06-30T11:40:22.055Z,20.54
2023-06-30T11:41:22.076Z,20.40
2023-06-30T11:42:21.954Z,20.26
2023-06-30T11:43:21.959Z,20.17
2023-06-30T11:44:21.939Z,20.10
2023-06-30T11:45:21.962Z,19.80
2023-06-30T11:46:21.971Z,19.78
2023-06-30T11:47:22.039Z,19.72
2023-06-30T11:48:21.897Z,19.68
2023-06-30T11:49:21.900Z,19.68
2023-06-30T11:50:21.876Z,19.61
2023-06-30T11:51:21.895Z,19.68
2023-06-30T11:52:21.875Z,19.64
2023-06-30T11:53:21.851Z,19.62
2023-06-30T11:54:21.837Z,19.47
2023-06-30T11:55:21.859Z,19.35
2023-06-30T11:56:21.975Z,19.28
2023-06-30T11:57:21.837Z,19.24
2023-06-30T11:58:21.857Z,19.13
2023-06-30T11:59:21.799Z,19.07
2023-06-30T12:00:21.827Z,19.09
2023-06-30T12:01:21.806Z,19.13
2023-06-30T12:02:21.863Z,19.13
2023-06-30T12:03:21.770Z,19.13
2023-06-30T12:04:21.836Z,19.15
2023-06-30T12:05:21.775Z,19.24
2023-06-30T12:06:21.708Z,19.25
2023-06-30T12:07:21.739Z,19.15
2023-06-30T12:08:21.692Z,19.25
2023-06-30T12:09:21.676Z,19.34
2023-06-30T12:10:21.683Z,19.40
2023-06-30T12:11:21.662Z,19.43
2023-06-30T12:12:21.640Z,19.46
2023-06-30T12:13:21.650Z,19.42
2023-06-30T12:14:21.637Z,19.30
2023-06-30T12:15:21.658Z,19.34
2023-06-30T12:16:21.630Z,19.46
2023-06-30T12:17:21.664Z,19.53
2023-06-30T12:18:21.578Z,19.58
2023-06-30T12:19:21.564Z,19.60
2023-06-30T12:20:21.556Z,19.62
2023-06-30T12:21:21.579Z,19.60
2023-06-30T12:22:21.604Z,19.58
2023-06-30T12:23:21.533Z,19.57
2023-06-30T12:24:21.521Z,19.50
2023-06-30T12:25:21.525Z,19.47
2023-06-30T12:26:21.500Z,19.49
2023-06-30T12:27:21.516Z,19.39
2023-06-30T12:28:21.475Z,19.30
2023-06-30T12:29:21.479Z,19.30
2023-06-30T12:30:22.079Z,19.25
2023-06-30T12:31:21.477Z,19.24
2023-06-30T12:32:21.512Z,19.24
2023-06-30T12:33:21.432Z,19.20
2023-06-30T12:34:21.421Z,19.17
2023-06-30T12:35:21.402Z,19.20
2023-06-30T12:36:21.386Z,19.17
2023-06-30T12:37:21.477Z,19.21
2023-06-30T12:38:21.380Z,19.16
2023-06-30T12:39:21.369Z,19.20
2023-06-30T12:40:21.347Z,19.23
2023-06-30T12:41:21.387Z,19.24
2023-06-30T12:42:21.341Z,19.24
2023-06-30T12:43:21.339Z,19.30
2023-06-30T12:44:21.358Z,19.34
2023-06-30T12:45:21.297Z,19.39
2023-06-30T12:46:21.356Z,19.45
2023-06-30T12:47:21.309Z,19.49
2023-06-30T12:48:21.273Z,19.46
2023-06-30T12:49:21.251Z,19.55
2023-06-30T12:50:21.252Z,19.60
2023-06-30T12:51:21.290Z,19.55
2023-06-30T12:52:21.228Z,19.60